sensor_id;sensor_type;location;lat;lon;timestamp;temperature;humidity
9179;DHT22;4624;48.126;11.546;2023-01-19T00:01:33;1.20;96.20
9179;DHT22;4624;48.126;11.546;2023-01-19T00:04:00;1.20;96.60
9179;DHT22;4624;48.126;11.546;2023-01-19T00:06:28;1.20;96.30
9179;DHT22;4624;48.126;11.546;2023-01-19T00:08:55;1.20;96.20
9179;DHT22;4624;48.126;11.546;2023-01-19T00:11:22;1.20;96.20
9179;DHT22;4624;48.126;11.546;2023-01-19T00:13:49;1.10;96.20
9179;DHT22;4624;48.126;11.546;2023-01-19T00:16:18;1.10;96.20
9179;DHT22;4624;48.126;11.546;2023-01-19T00:18:48;1.10;96.20
9179;DHT22;4624;48.126;11.546;2023-01-19T00:21:16;1.10;96.20
9179;DHT22;4624;48.126;11.546;2023-01-19T00:23:44;1.10;96.20
9179;DHT22;4624;48.126;11.546;2023-01-19T00:26:13;1.10;96.10
9179;DHT22;4624;48.126;11.546;2023-01-19T00:28:41;1.10;96.10
9179;DHT22;4624;48.126;11.546;2023-01-19T00:31:08;1.10;96.10
9179;DHT22;4624;48.126;11.546;2023-01-19T00:33:34;1.10;96.50
9179;DHT22;4624;48.126;11.546;2023-01-19T00:36:01;1.20;96.20
9179;DHT22;4624;48.126;11.546;2023-01-19T00:38:28;1.20;96.20
9179;DHT22;4624;48.126;11.546;2023-01-19T00:40:56;1.20;96.20
9179;DHT22;4624;48.126;11.546;2023-01-19T00:43:23;1.20;96.20
9179;DHT22;4624;48.126;11.546;2023-01-19T00:45:49;1.20;96.20
9179;DHT22;4624;48.126;11.546;2023-01-19T00:48:15;1.30;96.20
9179;DHT22;4624;48.126;11.546;2023-01-19T00:50:42;1.30;96.20
9179;DHT22;4624;48.126;11.546;2023-01-19T00:53:09;1.20;96.20
9179;DHT22;4624;48.126;11.546;2023-01-19T00:55:36;1.20;96.20
9179;DHT22;4624;48.126;11.546;2023-01-19T00:58:04;1.20;96.30
9179;DHT22;4624;48.126;11.546;2023-01-19T01:00:31;1.20;96.30
9179;DHT22;4624;48.126;11.546;2023-01-19T01:02:59;1.20;96.30
9179;DHT22;4624;48.126;11.546;2023-01-19T01:05:26;1.20;96.30
9179;DHT22;4624;48.126;11.546;2023-01-19T01:07:52;1.20;96.40
9179;DHT22;4624;48.126;11.546;2023-01-19T01:10:21;1.20;96.40
9179;DHT22;4624;48.126;11.546;2023-01-19T01:12:49;1.20;96.50
9179;DHT22;4624;48.126;11.546;2023-01-19T01:15:18;1.20;96.50
9179;DHT22;4624;48.126;11.546;2023-01-19T01:17:45;1.20;96.50
9179;DHT22;4624;48.126;11.546;2023-01-19T01:20:17;1.20;96.50
9179;DHT22;4624;48.126;11.546;2023-01-19T01:22:45;1.20;96.50
9179;DHT22;4624;48.126;11.546;2023-01-19T01:25:12;1.20;96.50
9179;DHT22;4624;48.126;11.546;2023-01-19T01:27:40;1.20;96.50
9179;DHT22;4624;48.126;11.546;2023-01-19T01:30:08;1.20;96.50
9179;DHT22;4624;48.126;11.546;2023-01-19T01:32:37;1.20;96.50
9179;DHT22;4624;48.126;11.546;2023-01-19T01:35:05;1.10;96.50
9179;DHT22;4624;48.126;11.546;2023-01-19T01:37:33;1.10;96.50
9179;DHT22;4624;48.126;11.546;2023-01-19T01:40:00;1.10;96.50
9179;DHT22;4624;48.126;11.546;2023-01-19T01:42:28;1.00;96.50
9179;DHT22;4624;48.126;11.546;2023-01-19T01:44:57;1.00;96.50
9179;DHT22;4624;48.126;11.546;2023-01-19T01:47:28;1.00;96.60
9179;DHT22;4624;48.126;11.546;2023-01-19T01:50:01;1.00;96.60
9179;DHT22;4624;48.126;11.546;2023-01-19T01:52:31;1.00;96.70
9179;DHT22;4624;48.126;11.546;2023-01-19T01:54:58;1.00;96.70
9179;DHT22;4624;48.126;11.546;2023-01-19T01:57:27;1.00;96.70
9179;DHT22;4624;48.126;11.546;2023-01-19T01:59:54;1.00;96.70
9179;DHT22;4624;48.126;11.546;2023-01-19T02:02:26;1.00;96.70
9179;DHT22;4624;48.126;11.546;2023-01-19T02:05:16;1.00;96.80
9179;DHT22;4624;48.126;11.546;2023-01-19T02:07:48;1.00;96.80
9179;DHT22;4624;48.126;11.546;2023-01-19T02:10:34;1.00;96.80
9179;DHT22;4624;48.126;11.546;2023-01-19T02:13:19;1.10;96.80
9179;DHT22;4624;48.126;11.546;2023-01-19T02:15:48;1.00;96.80
9179;DHT22;4624;48.126;11.546;2023-01-19T02:18:15;1.00;96.90
9179;DHT22;4624;48.126;11.546;2023-01-19T02:20:47;1.00;96.90
9179;DHT22;4624;48.126;11.546;2023-01-19T02:23:19;0.90;96.90
9179;DHT22;4624;48.126;11.546;2023-01-19T02:25:52;0.90;96.80
9179;DHT22;4624;48.126;11.546;2023-01-19T02:28:19;0.80;96.80
9179;DHT22;4624;48.126;11.546;2023-01-19T02:30:46;0.80;96.80
9179;DHT22;4624;48.126;11.546;2023-01-19T02:33:13;0.80;96.90
9179;DHT22;4624;48.126;11.546;2023-01-19T02:35:40;0.80;96.90
9179;DHT22;4624;48.126;11.546;2023-01-19T02:38:08;0.80;96.90
9179;DHT22;4624;48.126;11.546;2023-01-19T02:40:36;0.80;97.00
9179;DHT22;4624;48.126;11.546;2023-01-19T02:43:06;0.80;97.00
9179;DHT22;4624;48.126;11.546;2023-01-19T02:45:35;0.80;97.00
9179;DHT22;4624;48.126;11.546;2023-01-19T02:48:03;0.80;96.90
9179;DHT22;4624;48.126;11.546;2023-01-19T02:50:37;0.80;97.00
9179;DHT22;4624;48.126;11.546;2023-01-19T02:53:17;0.70;97.00
9179;DHT22;4624;48.126;11.546;2023-01-19T02:55:52;0.70;97.00
9179;DHT22;4624;48.126;11.546;2023-01-19T02:58:27;0.70;97.00
9179;DHT22;4624;48.126;11.546;2023-01-19T03:01:08;0.70;97.00
9179;DHT22;4624;48.126;11.546;2023-01-19T03:03:43;0.60;97.00
9179;DHT22;4624;48.126;11.546;2023-01-19T03:06:24;0.60;97.10
9179;DHT22;4624;48.126;11.546;2023-01-19T03:09:02;0.60;97.10
9179;DHT22;4624;48.126;11.546;2023-01-19T03:11:37;0.60;97.10
9179;DHT22;4624;48.126;11.546;2023-01-19T03:14:09;0.60;97.10
9179;DHT22;4624;48.126;11.546;2023-01-19T03:16:40;0.60;97.10
9179;DHT22;4624;48.126;11.546;2023-01-19T03:19:10;0.60;97.10
9179;DHT22;4624;48.126;11.546;2023-01-19T03:21:41;0.60;97.10
9179;DHT22;4624;48.126;11.546;2023-01-19T03:24:12;0.60;97.10
9179;DHT22;4624;48.126;11.546;2023-01-19T03:26:51;0.60;97.10
9179;DHT22;4624;48.126;11.546;2023-01-19T03:29:23;0.60;97.10
9179;DHT22;4624;48.126;11.546;2023-01-19T03:31:53;0.60;97.10
9179;DHT22;4624;48.126;11.546;2023-01-19T03:34:22;0.60;97.10
9179;DHT22;4624;48.126;11.546;2023-01-19T03:36:51;0.50;97.20
9179;DHT22;4624;48.126;11.546;2023-01-19T03:39:21;0.40;97.20
9179;DHT22;4624;48.126;11.546;2023-01-19T03:41:52;0.40;97.30
9179;DHT22;4624;48.126;11.546;2023-01-19T03:44:21;0.30;97.20
9179;DHT22;4624;48.126;11.546;2023-01-19T03:46:48;0.30;97.30
9179;DHT22;4624;48.126;11.546;2023-01-19T03:49:16;0.20;97.30
9179;DHT22;4624;48.126;11.546;2023-01-19T03:51:43;0.30;97.30
9179;DHT22;4624;48.126;11.546;2023-01-19T03:54:11;0.30;97.40
9179;DHT22;4624;48.126;11.546;2023-01-19T03:56:37;0.20;97.70
9179;DHT22;4624;48.126;11.546;2023-01-19T03:59:04;0.20;97.30
9179;DHT22;4624;48.126;11.546;2023-01-19T04:01:33;0.20;97.40
9179;DHT22;4624;48.126;11.546;2023-01-19T04:04:00;0.20;97.40
9179;DHT22;4624;48.126;11.546;2023-01-19T04:06:26;0.10;97.30
9179;DHT22;4624;48.126;11.546;2023-01-19T04:08:53;0.10;97.30
9179;DHT22;4624;48.126;11.546;2023-01-19T04:11:20;0.10;97.40
9179;DHT22;4624;48.126;11.546;2023-01-19T04:13:47;0.00;97.40
9179;DHT22;4624;48.126;11.546;2023-01-19T04:16:14;0.00;97.50
9179;DHT22;4624;48.126;11.546;2023-01-19T04:18:45;0.00;97.50
9179;DHT22;4624;48.126;11.546;2023-01-19T04:21:12;0.00;97.50
9179;DHT22;4624;48.126;11.546;2023-01-19T04:23:39;-0.10;97.50
9179;DHT22;4624;48.126;11.546;2023-01-19T04:26:07;0.00;97.60
9179;DHT22;4624;48.126;11.546;2023-01-19T04:28:35;0.00;97.60
9179;DHT22;4624;48.126;11.546;2023-01-19T04:31:02;0.00;97.60
9179;DHT22;4624;48.126;11.546;2023-01-19T04:33:29;-0.10;97.60
9179;DHT22;4624;48.126;11.546;2023-01-19T04:35:57;-0.10;97.60
9179;DHT22;4624;48.126;11.546;2023-01-19T04:38:25;0.00;97.70
9179;DHT22;4624;48.126;11.546;2023-01-19T04:40:53;-0.10;97.60
9179;DHT22;4624;48.126;11.546;2023-01-19T04:43:21;-0.10;97.60
9179;DHT22;4624;48.126;11.546;2023-01-19T04:45:48;-0.20;97.60
9179;DHT22;4624;48.126;11.546;2023-01-19T04:48:16;-0.20;97.60
9179;DHT22;4624;48.126;11.546;2023-01-19T04:50:43;-0.10;97.60
9179;DHT22;4624;48.126;11.546;2023-01-19T04:53:11;-0.10;97.60
9179;DHT22;4624;48.126;11.546;2023-01-19T04:55:40;-0.10;97.60
9179;DHT22;4624;48.126;11.546;2023-01-19T04:58:07;-0.10;97.50
9179;DHT22;4624;48.126;11.546;2023-01-19T05:00:34;-0.10;97.50
9179;DHT22;4624;48.126;11.546;2023-01-19T05:03:01;-0.10;97.50
9179;DHT22;4624;48.126;11.546;2023-01-19T05:05:28;-0.10;97.50
9179;DHT22;4624;48.126;11.546;2023-01-19T05:07:55;-0.20;97.50
9179;DHT22;4624;48.126;11.546;2023-01-19T05:10:23;-0.30;97.50
9179;DHT22;4624;48.126;11.546;2023-01-19T05:12:50;-0.30;97.50
9179;DHT22;4624;48.126;11.546;2023-01-19T05:15:16;-0.40;97.50
9179;DHT22;4624;48.126;11.546;2023-01-19T05:17:44;-0.50;97.50
9179;DHT22;4624;48.126;11.546;2023-01-19T05:20:11;-0.50;97.50
9179;DHT22;4624;48.126;11.546;2023-01-19T05:22:38;-0.50;97.60
9179;DHT22;4624;48.126;11.546;2023-01-19T05:25:06;-0.50;97.60
9179;DHT22;4624;48.126;11.546;2023-01-19T05:27:35;-0.50;97.70
9179;DHT22;4624;48.126;11.546;2023-01-19T05:30:03;-0.50;97.80
9179;DHT22;4624;48.126;11.546;2023-01-19T05:32:30;-0.50;97.80
9179;DHT22;4624;48.126;11.546;2023-01-19T05:34:57;-0.50;97.80
9179;DHT22;4624;48.126;11.546;2023-01-19T05:37:23;-0.60;97.80
9179;DHT22;4624;48.126;11.546;2023-01-19T05:39:51;-0.60;97.90
9179;DHT22;4624;48.126;11.546;2023-01-19T05:42:17;-0.60;97.90
9179;DHT22;4624;48.126;11.546;2023-01-19T05:44:46;-0.60;97.90
9179;DHT22;4624;48.126;11.546;2023-01-19T05:47:13;-0.60;97.90
9179;DHT22;4624;48.126;11.546;2023-01-19T05:49:39;-0.60;97.90
9179;DHT22;4624;48.126;11.546;2023-01-19T05:52:06;-0.70;98.00
9179;DHT22;4624;48.126;11.546;2023-01-19T05:54:33;-0.80;98.00
9179;DHT22;4624;48.126;11.546;2023-01-19T05:57:00;-0.80;98.30
9179;DHT22;4624;48.126;11.546;2023-01-19T05:59:27;-0.90;98.00
9179;DHT22;4624;48.126;11.546;2023-01-19T06:01:55;-0.80;98.10
9179;DHT22;4624;48.126;11.546;2023-01-19T06:04:24;-0.90;98.20
9179;DHT22;4624;48.126;11.546;2023-01-19T06:06:51;-0.80;98.30
9179;DHT22;4624;48.126;11.546;2023-01-19T06:09:18;-0.70;98.40
9179;DHT22;4624;48.126;11.546;2023-01-19T06:11:45;-0.70;98.50
9179;DHT22;4624;48.126;11.546;2023-01-19T06:14:12;-0.80;98.50
9179;DHT22;4624;48.126;11.546;2023-01-19T06:16:39;-0.70;98.50
9179;DHT22;4624;48.126;11.546;2023-01-19T06:19:07;-0.80;98.50
9179;DHT22;4624;48.126;11.546;2023-01-19T06:21:34;-0.80;98.80
9179;DHT22;4624;48.126;11.546;2023-01-19T06:24:00;-0.80;98.50
9179;DHT22;4624;48.126;11.546;2023-01-19T06:26:28;-0.90;98.50
9179;DHT22;4624;48.126;11.546;2023-01-19T06:28:54;-0.80;98.60
9179;DHT22;4624;48.126;11.546;2023-01-19T06:31:21;-0.80;98.60
9179;DHT22;4624;48.126;11.546;2023-01-19T06:33:48;-0.80;98.60
9179;DHT22;4624;48.126;11.546;2023-01-19T06:36:17;-0.80;98.60
9179;DHT22;4624;48.126;11.546;2023-01-19T06:38:44;-0.80;98.60
9179;DHT22;4624;48.126;11.546;2023-01-19T06:41:10;-0.80;98.60
9179;DHT22;4624;48.126;11.546;2023-01-19T06:43:37;-0.80;98.60
9179;DHT22;4624;48.126;11.546;2023-01-19T06:46:04;-0.80;98.60
9179;DHT22;4624;48.126;11.546;2023-01-19T06:48:31;-0.70;98.60
9179;DHT22;4624;48.126;11.546;2023-01-19T06:50:58;-0.70;98.60
9179;DHT22;4624;48.126;11.546;2023-01-19T06:53:26;-0.70;98.60
9179;DHT22;4624;48.126;11.546;2023-01-19T06:55:57;-0.70;98.60
9179;DHT22;4624;48.126;11.546;2023-01-19T06:58:25;-0.70;98.60
9179;DHT22;4624;48.126;11.546;2023-01-19T07:00:51;-0.70;98.50
9179;DHT22;4624;48.126;11.546;2023-01-19T07:03:20;-0.70;98.50
9179;DHT22;4624;48.126;11.546;2023-01-19T07:05:50;-0.70;98.50
9179;DHT22;4624;48.126;11.546;2023-01-19T07:08:17;-0.70;98.50
9179;DHT22;4624;48.126;11.546;2023-01-19T07:10:45;-0.70;98.40
9179;DHT22;4624;48.126;11.546;2023-01-19T07:13:12;-0.70;98.40
9179;DHT22;4624;48.126;11.546;2023-01-19T07:15:39;-0.80;98.30
9179;DHT22;4624;48.126;11.546;2023-01-19T07:18:06;-0.70;98.30
9179;DHT22;4624;48.126;11.546;2023-01-19T07:20:34;-0.80;98.20
9179;DHT22;4624;48.126;11.546;2023-01-19T07:23:02;-0.70;98.30
9179;DHT22;4624;48.126;11.546;2023-01-19T07:25:29;-0.70;98.30
9179;DHT22;4624;48.126;11.546;2023-01-19T07:27:57;-0.70;98.10
9179;DHT22;4624;48.126;11.546;2023-01-19T07:30:24;-0.80;98.00
9179;DHT22;4624;48.126;11.546;2023-01-19T07:32:54;-0.80;98.00
9179;DHT22;4624;48.126;11.546;2023-01-19T07:35:21;-0.80;98.00
9179;DHT22;4624;48.126;11.546;2023-01-19T07:37:47;-0.80;98.00
9179;DHT22;4624;48.126;11.546;2023-01-19T07:40:15;-0.70;98.10
9179;DHT22;4624;48.126;11.546;2023-01-19T07:42:45;-0.70;98.00
9179;DHT22;4624;48.126;11.546;2023-01-19T07:45:14;-0.60;98.00
9179;DHT22;4624;48.126;11.546;2023-01-19T07:47:42;-0.60;97.90
9179;DHT22;4624;48.126;11.546;2023-01-19T07:50:10;-0.60;97.80
9179;DHT22;4624;48.126;11.546;2023-01-19T07:52:37;-0.60;97.80
9179;DHT22;4624;48.126;11.546;2023-01-19T07:55:05;-0.60;97.70
9179;DHT22;4624;48.126;11.546;2023-01-19T07:57:32;-0.60;97.70
9179;DHT22;4624;48.126;11.546;2023-01-19T07:59:58;-0.50;97.70
9179;DHT22;4624;48.126;11.546;2023-01-19T08:02:27;-0.50;97.50
9179;DHT22;4624;48.126;11.546;2023-01-19T08:04:54;-0.50;97.50
9179;DHT22;4624;48.126;11.546;2023-01-19T08:07:21;-0.40;97.50
9179;DHT22;4624;48.126;11.546;2023-01-19T08:09:48;-0.50;97.40
9179;DHT22;4624;48.126;11.546;2023-01-19T08:12:14;-0.40;97.40
9179;DHT22;4624;48.126;11.546;2023-01-19T08:14:41;-0.30;97.40
9179;DHT22;4624;48.126;11.546;2023-01-19T08:17:11;-0.30;97.20
9179;DHT22;4624;48.126;11.546;2023-01-19T08:19:40;-0.30;97.20
9179;DHT22;4624;48.126;11.546;2023-01-19T08:22:07;-0.20;97.10
9179;DHT22;4624;48.126;11.546;2023-01-19T08:24:34;-0.20;97.00
9179;DHT22;4624;48.126;11.546;2023-01-19T08:27:02;-0.10;97.00
9179;DHT22;4624;48.126;11.546;2023-01-19T08:29:29;-0.10;96.80
9179;DHT22;4624;48.126;11.546;2023-01-19T08:31:58;-0.10;96.70
9179;DHT22;4624;48.126;11.546;2023-01-19T08:34:27;-0.10;96.60
9179;DHT22;4624;48.126;11.546;2023-01-19T08:36:56;0.00;96.60
9179;DHT22;4624;48.126;11.546;2023-01-19T08:39:24;0.10;96.50
9179;DHT22;4624;48.126;11.546;2023-01-19T08:41:51;0.10;96.40
9179;DHT22;4624;48.126;11.546;2023-01-19T08:44:18;0.20;96.20
9179;DHT22;4624;48.126;11.546;2023-01-19T08:46:45;0.30;96.10
9179;DHT22;4624;48.126;11.546;2023-01-19T08:49:12;0.40;95.90
9179;DHT22;4624;48.126;11.546;2023-01-19T08:51:39;0.60;95.90
9179;DHT22;4624;48.126;11.546;2023-01-19T08:54:08;0.80;96.00
9179;DHT22;4624;48.126;11.546;2023-01-19T08:56:35;0.90;95.80
9179;DHT22;4624;48.126;11.546;2023-01-19T08:59:01;1.10;95.70
9179;DHT22;4624;48.126;11.546;2023-01-19T09:01:28;1.10;95.40
9179;DHT22;4624;48.126;11.546;2023-01-19T09:03:55;1.10;95.20
9179;DHT22;4624;48.126;11.546;2023-01-19T09:06:22;1.10;95.10
9179;DHT22;4624;48.126;11.546;2023-01-19T09:08:49;1.20;95.00
9179;DHT22;4624;48.126;11.546;2023-01-19T09:11:18;1.20;94.70
9179;DHT22;4624;48.126;11.546;2023-01-19T09:13:44;1.20;94.40
9179;DHT22;4624;48.126;11.546;2023-01-19T09:16:11;1.20;94.30
9179;DHT22;4624;48.126;11.546;2023-01-19T09:18:40;1.40;94.30
9179;DHT22;4624;48.126;11.546;2023-01-19T09:21:07;1.60;94.30
9179;DHT22;4624;48.126;11.546;2023-01-19T09:23:34;1.80;94.20
9179;DHT22;4624;48.126;11.546;2023-01-19T09:26:03;2.10;93.80
9179;DHT22;4624;48.126;11.546;2023-01-19T09:28:31;2.30;93.50
9179;DHT22;4624;48.126;11.546;2023-01-19T09:31:02;2.40;93.30
9179;DHT22;4624;48.126;11.546;2023-01-19T09:33:29;2.70;93.30
9179;DHT22;4624;48.126;11.546;2023-01-19T09:35:56;2.80;92.80
9179;DHT22;4624;48.126;11.546;2023-01-19T09:38:23;3.00;92.50
9179;DHT22;4624;48.126;11.546;2023-01-19T09:40:51;3.20;92.20
9179;DHT22;4624;48.126;11.546;2023-01-19T09:43:34;3.30;92.00
9179;DHT22;4624;48.126;11.546;2023-01-19T09:46:02;3.20;91.30
9179;DHT22;4624;48.126;11.546;2023-01-19T09:48:42;3.10;91.00
9179;DHT22;4624;48.126;11.546;2023-01-19T09:51:13;2.90;90.90
9179;DHT22;4624;48.126;11.546;2023-01-19T09:53:59;2.70;90.80
9179;DHT22;4624;48.126;11.546;2023-01-19T09:56:28;2.80;90.90
9179;DHT22;4624;48.126;11.546;2023-01-19T09:58:58;2.90;90.80
9179;DHT22;4624;48.126;11.546;2023-01-19T10:01:39;3.20;90.60
9179;DHT22;4624;48.126;11.546;2023-01-19T10:04:26;3.30;90.30
9179;DHT22;4624;48.126;11.546;2023-01-19T10:10:08;3.50;89.50
9179;DHT22;4624;48.126;11.546;2023-01-19T10:12:54;3.60;88.50
9179;DHT22;4624;48.126;11.546;2023-01-19T10:15:34;4.00;88.20
9179;DHT22;4624;48.126;11.546;2023-01-19T10:18:12;4.50;88.20
9179;DHT22;4624;48.126;11.546;2023-01-19T10:20:42;4.90;86.40
9179;DHT22;4624;48.126;11.546;2023-01-19T10:23:31;5.20;85.70
9179;DHT22;4624;48.126;11.546;2023-01-19T10:26:05;5.40;84.00
9179;DHT22;4624;48.126;11.546;2023-01-19T10:28:35;5.80;82.90
9179;DHT22;4624;48.126;11.546;2023-01-19T10:31:04;6.10;81.50
9179;DHT22;4624;48.126;11.546;2023-01-19T10:33:34;6.40;80.40
9179;DHT22;4624;48.126;11.546;2023-01-19T10:36:09;6.70;79.10
9179;DHT22;4624;48.126;11.546;2023-01-19T10:38:41;7.10;78.30
9179;DHT22;4624;48.126;11.546;2023-01-19T10:41:13;7.50;77.60
9179;DHT22;4624;48.126;11.546;2023-01-19T10:43:43;7.40;74.50
9179;DHT22;4624;48.126;11.546;2023-01-19T10:46:20;7.20;73.20
9179;DHT22;4624;48.126;11.546;2023-01-19T10:48:49;7.20;72.80
9179;DHT22;4624;48.126;11.546;2023-01-19T10:51:16;7.40;72.70
9179;DHT22;4624;48.126;11.546;2023-01-19T10:53:56;7.40;70.50
9179;DHT22;4624;48.126;11.546;2023-01-19T10:56:26;7.50;70.00
9179;DHT22;4624;48.126;11.546;2023-01-19T10:58:53;8.20;70.00
9179;DHT22;4624;48.126;11.546;2023-01-19T11:01:22;8.50;68.10
9179;DHT22;4624;48.126;11.546;2023-01-19T11:03:51;8.70;66.90
9179;DHT22;4624;48.126;11.546;2023-01-19T11:06:25;8.60;65.40
9179;DHT22;4624;48.126;11.546;2023-01-19T11:08:52;8.60;65.50
9179;DHT22;4624;48.126;11.546;2023-01-19T11:11:41;8.60;64.70
9179;DHT22;4624;48.126;11.546;2023-01-19T11:14:10;8.20;64.10
9179;DHT22;4624;48.126;11.546;2023-01-19T11:16:40;8.00;63.70
9179;DHT22;4624;48.126;11.546;2023-01-19T11:19:20;8.00;64.30
9179;DHT22;4624;48.126;11.546;2023-01-19T11:21:49;7.90;64.10
9179;DHT22;4624;48.126;11.546;2023-01-19T11:24:16;7.50;63.70
9179;DHT22;4624;48.126;11.546;2023-01-19T11:26:45;7.10;63.80
9179;DHT22;4624;48.126;11.546;2023-01-19T11:29:17;6.70;63.60
9179;DHT22;4624;48.126;11.546;2023-01-19T11:31:47;6.20;64.20
9179;DHT22;4624;48.126;11.546;2023-01-19T11:34:30;5.90;64.50
9179;DHT22;4624;48.126;11.546;2023-01-19T11:36:59;5.50;64.80
9179;DHT22;4624;48.126;11.546;2023-01-19T11:39:28;5.10;64.70
9179;DHT22;4624;48.126;11.546;2023-01-19T11:41:56;4.90;65.50
9179;DHT22;4624;48.126;11.546;2023-01-19T11:44:26;4.70;65.90
9179;DHT22;4624;48.126;11.546;2023-01-19T11:46:58;4.50;66.10
9179;DHT22;4624;48.126;11.546;2023-01-19T11:49:31;4.50;66.30
9179;DHT22;4624;48.126;11.546;2023-01-19T11:52:06;4.30;66.70
9179;DHT22;4624;48.126;11.546;2023-01-19T11:54:43;4.30;67.20
9179;DHT22;4624;48.126;11.546;2023-01-19T11:57:14;4.40;67.30
9179;DHT22;4624;48.126;11.546;2023-01-19T11:59:41;4.40;67.40
9179;DHT22;4624;48.126;11.546;2023-01-19T12:02:19;4.30;67.40
9179;DHT22;4624;48.126;11.546;2023-01-19T12:04:48;4.30;67.70
9179;DHT22;4624;48.126;11.546;2023-01-19T12:07:21;4.30;68.00
9179;DHT22;4624;48.126;11.546;2023-01-19T12:09:52;4.30;68.10
9179;DHT22;4624;48.126;11.546;2023-01-19T12:12:26;4.30;68.00
9179;DHT22;4624;48.126;11.546;2023-01-19T12:14:58;4.30;67.90
9179;DHT22;4624;48.126;11.546;2023-01-19T12:17:29;4.50;68.10
9179;DHT22;4624;48.126;11.546;2023-01-19T12:20:04;4.60;67.40
9179;DHT22;4624;48.126;11.546;2023-01-19T12:22:36;4.60;67.00
9179;DHT22;4624;48.126;11.546;2023-01-19T12:25:14;4.60;67.20
9179;DHT22;4624;48.126;11.546;2023-01-19T12:27:42;4.80;67.60
9179;DHT22;4624;48.126;11.546;2023-01-19T12:30:16;4.90;67.10
9179;DHT22;4624;48.126;11.546;2023-01-19T12:32:45;4.80;66.90
9179;DHT22;4624;48.126;11.546;2023-01-19T12:38:46;4.70;67.00
9179;DHT22;4624;48.126;11.546;2023-01-19T12:41:22;4.50;67.00
9179;DHT22;4624;48.126;11.546;2023-01-19T12:44:20;4.10;67.90
9179;DHT22;4624;48.126;11.546;2023-01-19T12:46:51;3.90;67.80
9179;DHT22;4624;48.126;11.546;2023-01-19T12:49:26;3.70;68.30
9179;DHT22;4624;48.126;11.546;2023-01-19T12:52:11;3.60;68.80
9179;DHT22;4624;48.126;11.546;2023-01-19T12:54:41;3.50;69.30
9179;DHT22;4624;48.126;11.546;2023-01-19T12:57:17;3.30;69.40
9179;DHT22;4624;48.126;11.546;2023-01-19T12:59:46;3.20;69.90
9179;DHT22;4624;48.126;11.546;2023-01-19T13:05:46;3.00;70.60
9179;DHT22;4624;48.126;11.546;2023-01-19T13:08:15;2.90;71.00
9179;DHT22;4624;48.126;11.546;2023-01-19T13:11:16;2.80;71.40
9179;DHT22;4624;48.126;11.546;2023-01-19T13:20:02;2.50;71.30
9179;DHT22;4624;48.126;11.546;2023-01-19T13:26:02;2.90;71.80
9179;DHT22;4624;48.126;11.546;2023-01-19T13:28:36;3.00;71.70
9179;DHT22;4624;48.126;11.546;2023-01-19T13:31:04;2.90;71.80
9179;DHT22;4624;48.126;11.546;2023-01-19T13:33:41;2.80;71.90
9179;DHT22;4624;48.126;11.546;2023-01-19T13:36:20;2.70;72.10
9179;DHT22;4624;48.126;11.546;2023-01-19T13:38:49;2.50;72.40
9179;DHT22;4624;48.126;11.546;2023-01-19T13:41:20;2.40;73.60
9179;DHT22;4624;48.126;11.546;2023-01-19T13:43:53;2.40;73.30
9179;DHT22;4624;48.126;11.546;2023-01-19T13:46:20;2.40;73.50
9179;DHT22;4624;48.126;11.546;2023-01-19T13:48:54;2.30;73.60
9179;DHT22;4624;48.126;11.546;2023-01-19T13:51:21;2.40;73.90
9179;DHT22;4624;48.126;11.546;2023-01-19T13:53:53;2.40;74.00
9179;DHT22;4624;48.126;11.546;2023-01-19T13:56:23;2.30;74.10
9179;DHT22;4624;48.126;11.546;2023-01-19T13:59:01;2.30;74.50
9179;DHT22;4624;48.126;11.546;2023-01-19T14:01:30;2.40;74.80
9179;DHT22;4624;48.126;11.546;2023-01-19T14:03:57;2.40;75.10
9179;DHT22;4624;48.126;11.546;2023-01-19T14:06:33;2.40;75.30
9179;DHT22;4624;48.126;11.546;2023-01-19T14:09:05;2.40;75.10
9179;DHT22;4624;48.126;11.546;2023-01-19T14:11:34;2.30;75.00
9179;DHT22;4624;48.126;11.546;2023-01-19T14:14:00;2.30;75.10
9179;DHT22;4624;48.126;11.546;2023-01-19T14:16:27;2.30;74.80
9179;DHT22;4624;48.126;11.546;2023-01-19T14:19:00;2.30;74.70
9179;DHT22;4624;48.126;11.546;2023-01-19T14:21:37;2.30;74.70
9179;DHT22;4624;48.126;11.546;2023-01-19T14:24:08;2.30;74.70
9179;DHT22;4624;48.126;11.546;2023-01-19T14:26:42;2.30;74.30
9179;DHT22;4624;48.126;11.546;2023-01-19T14:29:21;2.30;74.10
9179;DHT22;4624;48.126;11.546;2023-01-19T14:31:50;2.30;73.70
9179;DHT22;4624;48.126;11.546;2023-01-19T14:34:31;2.20;73.40
9179;DHT22;4624;48.126;11.546;2023-01-19T14:36:59;2.20;73.50
9179;DHT22;4624;48.126;11.546;2023-01-19T14:39:29;2.20;73.60
9179;DHT22;4624;48.126;11.546;2023-01-19T14:41:59;2.20;73.80
9179;DHT22;4624;48.126;11.546;2023-01-19T14:44:29;2.20;73.90
9179;DHT22;4624;48.126;11.546;2023-01-19T14:46:57;2.20;74.00
9179;DHT22;4624;48.126;11.546;2023-01-19T14:49:32;2.10;73.90
9179;DHT22;4624;48.126;11.546;2023-01-19T14:52:01;2.00;73.80
9179;DHT22;4624;48.126;11.546;2023-01-19T14:54:32;2.00;74.10
9179;DHT22;4624;48.126;11.546;2023-01-19T14:57:02;2.00;74.30
9179;DHT22;4624;48.126;11.546;2023-01-19T14:59:28;2.00;74.40
9179;DHT22;4624;48.126;11.546;2023-01-19T15:01:55;2.00;74.50
9179;DHT22;4624;48.126;11.546;2023-01-19T15:04:24;2.00;74.40
9179;DHT22;4624;48.126;11.546;2023-01-19T15:06:51;2.00;74.40
9179;DHT22;4624;48.126;11.546;2023-01-19T15:09:17;2.00;74.50
9179;DHT22;4624;48.126;11.546;2023-01-19T15:11:46;1.90;74.60
9179;DHT22;4624;48.126;11.546;2023-01-19T15:14:16;1.90;74.90
9179;DHT22;4624;48.126;11.546;2023-01-19T15:16:44;2.00;75.30
9179;DHT22;4624;48.126;11.546;2023-01-19T15:19:12;1.90;75.40
9179;DHT22;4624;48.126;11.546;2023-01-19T15:21:39;1.90;75.60
9179;DHT22;4624;48.126;11.546;2023-01-19T15:24:07;1.90;75.50
9179;DHT22;4624;48.126;11.546;2023-01-19T15:26:35;1.90;75.50
9179;DHT22;4624;48.126;11.546;2023-01-19T15:29:02;1.90;75.50
9179;DHT22;4624;48.126;11.546;2023-01-19T15:31:30;1.90;75.60
9179;DHT22;4624;48.126;11.546;2023-01-19T15:33:57;1.80;75.70
9179;DHT22;4624;48.126;11.546;2023-01-19T15:36:24;1.80;75.80
9179;DHT22;4624;48.126;11.546;2023-01-19T15:38:51;1.80;75.70
9179;DHT22;4624;48.126;11.546;2023-01-19T15:41:21;1.70;75.80
9179;DHT22;4624;48.126;11.546;2023-01-19T15:43:49;1.70;75.90
9179;DHT22;4624;48.126;11.546;2023-01-19T15:46:17;1.70;76.00
9179;DHT22;4624;48.126;11.546;2023-01-19T15:48:46;1.70;76.20
9179;DHT22;4624;48.126;11.546;2023-01-19T15:51:14;1.70;76.20
9179;DHT22;4624;48.126;11.546;2023-01-19T15:53:41;1.60;76.30
9179;DHT22;4624;48.126;11.546;2023-01-19T15:56:13;1.60;76.40
9179;DHT22;4624;48.126;11.546;2023-01-19T15:58:40;1.60;76.50
9179;DHT22;4624;48.126;11.546;2023-01-19T16:01:11;1.60;76.70
9179;DHT22;4624;48.126;11.546;2023-01-19T16:03:38;1.60;76.70
9179;DHT22;4624;48.126;11.546;2023-01-19T16:06:06;1.50;76.70
9179;DHT22;4624;48.126;11.546;2023-01-19T16:08:33;1.50;76.80
9179;DHT22;4624;48.126;11.546;2023-01-19T16:11:03;1.50;76.80
9179;DHT22;4624;48.126;11.546;2023-01-19T16:13:30;1.50;76.80
9179;DHT22;4624;48.126;11.546;2023-01-19T16:16:00;1.40;76.90
9179;DHT22;4624;48.126;11.546;2023-01-19T16:18:27;1.40;77.00
9179;DHT22;4624;48.126;11.546;2023-01-19T16:20:54;1.40;77.10
9179;DHT22;4624;48.126;11.546;2023-01-19T16:23:22;1.40;77.20
9179;DHT22;4624;48.126;11.546;2023-01-19T16:25:56;1.40;77.20
9179;DHT22;4624;48.126;11.546;2023-01-19T16:28:23;1.40;77.10
9179;DHT22;4624;48.126;11.546;2023-01-19T16:30:50;1.40;77.10
9179;DHT22;4624;48.126;11.546;2023-01-19T16:33:17;1.30;77.10